createdAt,value
2019-03-05T00:00:34.672Z,0.80
2019-03-05T00:03:04.358Z,1.10
2019-03-05T00:05:34.016Z,1.07
2019-03-05T00:08:03.625Z,0.67
2019-03-05T00:10:33.280Z,1.07
2019-03-05T00:13:02.894Z,0.90
2019-03-05T00:15:32.892Z,1.00
2019-03-05T00:18:02.578Z,0.77
2019-03-05T00:20:32.164Z,1.00
2019-03-05T00:23:01.850Z,0.90
2019-03-05T00:25:36.876Z,0.90
2019-03-05T00:28:28.120Z,0.97
2019-03-05T00:31:16.960Z,1.20
2019-03-05T00:34:14.697Z,0.90
2019-03-05T00:37:00.737Z,0.70
2019-03-05T00:39:49.648Z,0.70
2019-03-05T00:42:58.091Z,0.80
2019-03-05T00:45:58.905Z,1.00
2019-03-05T00:48:59.796Z,0.93
2019-03-05T00:51:36.671Z,1.03
2019-03-05T00:54:25.430Z,0.80
2019-03-05T00:57:08.268Z,0.70
2019-03-05T01:00:12.096Z,0.87
2019-03-05T01:03:22.192Z,0.73
2019-03-05T01:06:02.374Z,0.60
2019-03-05T01:08:33.871Z,0.70
2019-03-05T01:11:03.551Z,0.73
2019-03-05T01:13:33.448Z,0.60
2019-03-05T01:16:04.729Z,0.70
2019-03-05T01:18:34.608Z,0.90
2019-03-05T01:21:04.607Z,0.80
2019-03-05T01:23:34.357Z,1.17
2019-03-05T01:26:04.250Z,1.10
2019-03-05T01:28:34.008Z,1.07
2019-03-05T01:31:21.086Z,0.97
2019-03-05T01:34:04.540Z,1.20
2019-03-05T01:36:35.834Z,0.93
2019-03-05T01:39:19.742Z,1.00
2019-03-05T01:41:49.328Z,0.87
2019-03-05T01:44:18.939Z,0.70
2019-03-05T01:46:48.635Z,0.50
2019-03-05T01:49:18.288Z,1.20
2019-03-05T01:51:47.969Z,1.30
2019-03-05T01:54:17.722Z,1.47
2019-03-05T01:56:47.312Z,1.40
2019-03-05T01:59:16.921Z,1.40
2019-03-05T02:01:46.673Z,0.70
2019-03-05T02:04:16.399Z,0.93
2019-03-05T02:06:46.057Z,1.23
2019-03-05T02:09:16.105Z,1.40
2019-03-05T02:11:45.829Z,1.47
2019-03-05T02:14:15.443Z,1.30
2019-03-05T02:16:45.101Z,1.00
2019-03-05T02:19:38.109Z,0.80
2019-03-05T02:22:12.309Z,1.30
2019-03-05T02:25:01.324Z,1.90
2019-03-05T02:28:10.128Z,1.30
2019-03-05T02:31:02.705Z,1.40
2019-03-05T02:33:55.624Z,1.07
2019-03-05T02:36:50.212Z,0.93
2019-03-05T02:39:48.334Z,1.30
2019-03-05T02:42:31.195Z,1.33
2019-03-05T02:45:33.724Z,1.27
2019-03-05T02:48:13.614Z,1.00
2019-03-05T02:51:08.638Z,1.13
2019-03-05T02:53:59.104Z,1.10
2019-03-05T02:56:50.300Z,1.60
2019-03-05T02:59:18.205Z,1.10
2019-03-05T03:02:05.542Z,1.20
2019-03-05T03:04:40.774Z,1.20
2019-03-05T03:07:10.530Z,1.00
2019-03-05T03:09:50.225Z,0.97
2019-03-05T03:12:19.906Z,1.20
2019-03-05T03:14:49.595Z,1.20
2019-03-05T03:17:19.269Z,1.00
2019-03-05T03:19:48.945Z,0.90
2019-03-05T03:22:18.603Z,0.70
2019-03-05T03:24:48.238Z,0.80
2019-03-05T03:27:17.894Z,0.97
2019-03-05T03:29:47.524Z,1.30
2019-03-05T03:32:17.115Z,1.20
2019-03-05T03:34:46.741Z,0.70
2019-03-05T03:37:16.390Z,0.70
2019-03-05T03:39:45.974Z,0.70
2019-03-05T03:42:15.585Z,0.90
2019-03-05T03:44:45.206Z,0.90
2019-03-05T03:47:14.860Z,1.03
2019-03-05T03:49:44.447Z,0.90
2019-03-05T03:52:14.134Z,1.50
2019-03-05T03:54:43.749Z,1.00
2019-03-05T03:57:13.466Z,1.13
2019-03-05T03:59:43.079Z,1.03
2019-03-05T04:02:12.668Z,1.07
2019-03-05T04:04:42.415Z,1.23
2019-03-05T04:07:12.163Z,1.40
2019-03-05T04:09:41.911Z,1.10
2019-03-05T04:12:11.586Z,0.83
2019-03-05T04:14:41.177Z,0.70
2019-03-05T04:17:10.791Z,1.27
2019-03-05T04:19:40.518Z,0.90
2019-03-05T04:22:10.116Z,1.03
2019-03-05T04:24:39.920Z,0.97
2019-03-05T04:27:09.539Z,0.80
2019-03-05T04:29:39.123Z,1.63
2019-03-05T04:32:08.742Z,2.03
2019-03-05T04:34:38.335Z,2.20
2019-03-05T04:37:07.935Z,2.03
2019-03-05T04:39:37.544Z,1.63
2019-03-05T04:42:07.274Z,1.27
2019-03-05T04:44:38.519Z,0.97
2019-03-05T04:47:08.165Z,1.63
2019-03-05T04:49:41.998Z,1.70
2019-03-05T04:52:13.244Z,1.93
2019-03-05T04:54:42.829Z,1.20
2019-03-05T04:57:12.683Z,1.23
2019-03-05T04:59:42.290Z,1.60
2019-03-05T05:02:12.046Z,1.20
2019-03-05T05:04:41.631Z,1.17
2019-03-05T05:07:11.245Z,1.60
2019-03-05T05:09:40.831Z,1.30
2019-03-05T05:12:10.457Z,1.93
2019-03-05T05:14:40.041Z,1.70
2019-03-05T05:17:09.630Z,1.60
2019-03-05T05:19:39.249Z,1.70
2019-03-05T05:22:08.833Z,1.73
2019-03-05T05:24:38.444Z,1.80
2019-03-05T05:27:08.036Z,1.53
2019-03-05T05:29:37.662Z,1.60
2019-03-05T05:32:07.249Z,1.67
2019-03-05T05:34:36.837Z,1.43
2019-03-05T05:37:06.451Z,1.40
2019-03-05T05:40:26.193Z,1.50
2019-03-05T05:42:55.806Z,1.93
2019-03-05T05:45:46.940Z,1.90
2019-03-05T05:48:16.669Z,1.87
2019-03-05T05:50:46.326Z,1.90
2019-03-05T05:53:16.078Z,1.97
2019-03-05T05:55:46.796Z,2.30
2019-03-05T05:58:16.480Z,1.40
2019-03-05T06:00:47.855Z,1.93
2019-03-05T06:03:17.470Z,2.13
2019-03-05T06:05:47.050Z,2.40
2019-03-05T06:08:16.734Z,2.23
2019-03-05T06:10:46.698Z,2.60
2019-03-05T06:13:16.364Z,2.60
2019-03-05T06:15:45.978Z,2.30
2019-03-05T06:18:15.593Z,3.40
2019-03-05T06:20:45.215Z,3.10
2019-03-05T06:23:14.832Z,3.20
2019-03-05T06:25:44.479Z,3.47
2019-03-05T06:28:14.081Z,2.80
2019-03-05T06:30:44.405Z,3.23
2019-03-05T06:33:14.023Z,3.47
2019-03-05T06:35:43.845Z,2.77
2019-03-05T06:38:13.529Z,3.43
2019-03-05T06:40:43.111Z,2.90
2019-03-05T06:43:13.320Z,2.90
2019-03-05T06:45:43.004Z,2.87
2019-03-05T06:48:12.692Z,3.47
2019-03-05T06:50:42.305Z,3.03
2019-03-05T06:53:11.969Z,2.50
2019-03-05T06:55:41.610Z,3.03
2019-03-05T06:58:11.985Z,2.53
2019-03-05T07:00:41.977Z,1.90
2019-03-05T07:03:11.755Z,3.40
2019-03-05T07:06:35.888Z,4.10
2019-03-05T07:09:15.495Z,4.20
2019-03-05T07:11:55.517Z,4.47
2019-03-05T07:14:41.399Z,3.93
2019-03-05T07:17:21.340Z,4.90
2019-03-05T07:20:24.754Z,4.00
2019-03-05T07:23:13.646Z,3.50
2019-03-05T07:25:43.402Z,3.10
2019-03-05T07:28:12.990Z,3.27
2019-03-05T07:30:42.700Z,3.63
2019-03-05T07:33:12.320Z,4.63
2019-03-05T07:35:42.262Z,3.90
2019-03-05T07:38:12.298Z,3.97
2019-03-05T07:40:41.900Z,3.87
2019-03-05T07:43:11.487Z,4.43
2019-03-05T07:45:41.084Z,4.30
2019-03-05T07:48:10.718Z,5.53
2019-03-05T07:50:40.876Z,5.50
2019-03-05T07:53:10.503Z,5.37
2019-03-05T07:55:40.119Z,5.37
2019-03-05T07:58:11.701Z,5.37
2019-03-05T08:00:41.893Z,5.13
2019-03-05T08:03:11.557Z,4.63
2019-03-05T08:05:41.341Z,5.23
2019-03-05T08:09:05.563Z,4.50
2019-03-05T08:11:35.223Z,4.70
2019-03-05T08:14:17.914Z,3.37
2019-03-05T08:16:47.506Z,2.60
2019-03-05T08:19:17.117Z,3.17
2019-03-05T08:21:46.708Z,2.53
2019-03-05T08:24:16.325Z,2.97
2019-03-05T08:26:45.911Z,3.10
2019-03-05T08:29:15.718Z,7.53
2019-03-05T08:31:45.306Z,3.70
2019-03-05T08:34:14.930Z,5.70
2019-03-05T08:36:44.519Z,2.40
2019-03-05T08:39:14.269Z,1.97
2019-03-05T08:41:43.857Z,1.60
2019-03-05T08:44:13.444Z,1.80
2019-03-05T08:46:43.057Z,2.13
2019-03-05T08:49:12.713Z,2.33
2019-03-05T08:51:42.324Z,2.10
2019-03-05T08:54:11.918Z,2.33
2019-03-05T08:56:42.032Z,2.73
2019-03-05T08:59:11.657Z,2.60
2019-03-05T09:01:41.273Z,2.13
2019-03-05T09:04:10.995Z,2.00
2019-03-05T09:06:40.605Z,2.07
2019-03-05T09:09:12.241Z,2.30
2019-03-05T09:11:41.853Z,1.20
2019-03-05T09:14:11.464Z,1.40
2019-03-05T09:16:41.050Z,1.43
2019-03-05T09:19:10.662Z,1.20
2019-03-05T09:21:40.318Z,1.70
2019-03-05T09:24:09.944Z,1.67
2019-03-05T09:26:50.482Z,1.70
2019-03-05T09:29:11.040Z,2.13
2019-03-05T09:31:40.642Z,2.50
2019-03-05T09:34:10.391Z,2.70
2019-03-05T09:36:50.533Z,2.07
2019-03-05T09:39:12.763Z,1.80
2019-03-05T09:41:42.494Z,2.07
2019-03-05T09:44:12.179Z,1.97
2019-03-05T09:46:41.781Z,2.20
2019-03-05T09:49:11.399Z,2.20
2019-03-05T09:51:40.990Z,1.67
2019-03-05T09:54:10.751Z,1.87
2019-03-05T09:56:40.410Z,2.10
2019-03-05T09:59:10.115Z,1.50
2019-03-05T10:01:39.841Z,1.30
2019-03-05T10:04:09.430Z,1.40
2019-03-05T10:06:39.043Z,1.60
2019-03-05T10:09:09.052Z,1.77
2019-03-05T10:11:38.740Z,1.67
2019-03-05T10:14:08.411Z,1.70
2019-03-05T10:16:38.034Z,2.00
2019-03-05T10:19:07.701Z,1.40
2019-03-05T10:21:45.894Z,1.20
2019-03-05T10:24:10.751Z,1.50
2019-03-05T10:26:40.605Z,1.27
2019-03-05T10:29:10.261Z,1.10
2019-03-05T10:31:40.328Z,1.33
2019-03-05T10:34:10.048Z,1.30
2019-03-05T10:36:39.742Z,1.17
2019-03-05T10:39:30.655Z,1.20
2019-03-05T10:41:56.471Z,1.10
2019-03-05T10:44:26.251Z,0.80
2019-03-05T10:46:56.338Z,1.10
2019-03-05T10:49:26.170Z,1.03
2019-03-05T10:51:55.794Z,0.90
2019-03-05T10:54:25.418Z,1.00
2019-03-05T10:56:55.149Z,1.10
2019-03-05T10:59:24.856Z,1.00
2019-03-05T11:01:54.619Z,0.90
2019-03-05T11:04:24.715Z,0.80
2019-03-05T11:06:54.414Z,0.70
2019-03-05T11:09:24.287Z,0.80
2019-03-05T11:11:53.920Z,0.90
2019-03-05T11:14:23.588Z,0.83
2019-03-05T11:16:53.435Z,0.80
2019-03-05T11:19:23.027Z,0.90
2019-03-05T11:21:52.706Z,0.70
2019-03-05T11:24:22.320Z,0.60
2019-03-05T11:26:52.018Z,1.10
2019-03-05T11:29:21.820Z,0.90
2019-03-05T11:31:51.487Z,0.70
2019-03-05T11:34:21.107Z,0.80
2019-03-05T11:36:50.704Z,1.07
2019-03-05T11:39:20.383Z,0.70
2019-03-05T11:41:50.014Z,0.70
2019-03-05T11:44:19.601Z,0.50
2019-03-05T11:46:49.293Z,0.70
2019-03-05T11:49:19.026Z,0.70
2019-03-05T11:51:48.722Z,0.60
2019-03-05T11:54:18.371Z,0.70
2019-03-05T11:56:48.015Z,0.70
2019-03-05T11:59:17.635Z,0.80
2019-03-05T12:01:47.252Z,0.97
2019-03-05T12:04:16.866Z,0.70
2019-03-05T12:06:46.531Z,0.80
2019-03-05T12:09:16.214Z,0.53
2019-03-05T12:11:45.808Z,0.70
2019-03-05T12:14:15.427Z,0.40
2019-03-05T12:16:45.128Z,0.60
2019-03-05T12:19:14.720Z,0.53
2019-03-05T12:21:44.316Z,0.60
2019-03-05T12:24:13.947Z,0.73
2019-03-05T12:26:43.684Z,0.63
2019-03-05T12:29:13.281Z,0.60
2019-03-05T12:31:42.910Z,0.53
2019-03-05T12:34:12.577Z,0.80
2019-03-05T12:36:42.191Z,0.97
2019-03-05T12:39:13.468Z,0.90
2019-03-05T12:41:43.091Z,0.63
2019-03-05T12:44:12.716Z,0.77
2019-03-05T12:46:42.320Z,0.70
2019-03-05T12:49:12.017Z,0.73
2019-03-05T12:51:41.847Z,0.60
2019-03-05T12:54:11.531Z,0.70
2019-03-05T12:56:41.223Z,0.97
2019-03-05T12:59:10.818Z,0.60
2019-03-05T13:01:40.523Z,0.60
2019-03-05T13:04:10.258Z,0.90
2019-03-05T13:06:39.925Z,0.80
2019-03-05T13:09:17.793Z,0.57
2019-03-05T13:11:46.589Z,0.37
2019-03-05T13:14:16.880Z,0.83
2019-03-05T13:16:46.548Z,0.50
2019-03-05T13:19:16.303Z,0.60
2019-03-05T13:21:48.544Z,0.83
2019-03-05T13:24:17.267Z,0.90
2019-03-05T13:26:46.872Z,0.90
2019-03-05T13:29:19.159Z,0.57
2019-03-05T13:31:47.818Z,0.50
2019-03-05T13:34:17.705Z,0.70
2019-03-05T13:36:50.606Z,1.10
2019-03-05T13:39:22.221Z,0.90
2019-03-05T13:41:55.282Z,1.00
2019-03-05T13:44:34.011Z,1.77
2019-03-05T13:47:05.708Z,1.20
2019-03-05T13:49:45.734Z,1.13
2019-03-05T13:52:50.457Z,1.30
2019-03-05T13:55:53.137Z,1.13
2019-03-05T13:59:12.065Z,1.43
2019-03-05T14:01:42.398Z,1.50
2019-03-05T14:04:53.832Z,0.83
2019-03-05T14:07:59.157Z,1.20
2019-03-05T14:10:28.751Z,1.30
2019-03-05T14:12:58.527Z,1.30
2019-03-05T14:15:28.493Z,1.30
2019-03-05T14:17:58.148Z,1.50
2019-03-05T14:20:32.064Z,1.30
2019-03-05T14:22:59.092Z,1.37
2019-03-05T14:25:28.783Z,0.90
2019-03-05T14:27:58.441Z,1.10
2019-03-05T14:30:28.269Z,0.90
2019-03-05T14:32:57.925Z,1.10
2019-03-05T14:35:27.987Z,1.23
2019-03-05T14:37:57.716Z,1.50
2019-03-05T14:40:30.260Z,1.20
2019-03-05T14:43:00.180Z,1.33
2019-03-05T14:45:36.570Z,0.97
2019-03-05T14:48:06.649Z,1.30
2019-03-05T14:50:36.789Z,1.40
2019-03-05T14:53:06.634Z,1.13
2019-03-05T14:55:36.361Z,1.10
2019-03-05T14:58:06.154Z,1.07
2019-03-05T15:00:35.877Z,1.20
2019-03-05T15:03:05.764Z,1.03
2019-03-05T15:05:35.568Z,1.33
2019-03-05T15:08:05.231Z,1.47
2019-03-05T15:10:35.145Z,1.33
2019-03-05T15:13:15.294Z,1.30
2019-03-05T15:15:36.784Z,1.17
2019-03-05T15:18:06.619Z,1.50
2019-03-05T15:20:36.228Z,1.30
2019-03-05T15:23:05.915Z,1.20
2019-03-05T15:25:35.608Z,1.40
2019-03-05T15:28:05.448Z,1.40
2019-03-05T15:30:35.287Z,1.23
2019-03-05T15:33:04.914Z,1.20
2019-03-05T15:35:34.546Z,2.80
2019-03-05T15:38:04.168Z,1.03
2019-03-05T15:40:33.729Z,1.47
2019-03-05T15:43:03.374Z,1.50
2019-03-05T15:48:16.841Z,1.07
2019-03-05T15:50:46.425Z,1.90
2019-03-05T15:53:16.018Z,1.27
2019-03-05T15:55:45.705Z,1.60
2019-03-05T15:58:15.300Z,2.07
2019-03-05T16:00:45.364Z,1.73
2019-03-05T16:03:14.955Z,1.33
2019-03-05T16:05:44.719Z,1.40
2019-03-05T16:08:14.313Z,1.53
2019-03-05T16:10:43.923Z,1.57
2019-03-05T16:13:15.367Z,1.90
2019-03-05T16:15:45.456Z,1.50
2019-03-05T16:18:16.187Z,1.63
2019-03-05T16:20:45.881Z,1.30
2019-03-05T16:23:15.502Z,1.40
2019-03-05T16:25:49.852Z,1.70
2019-03-05T16:28:16.984Z,1.73
2019-03-05T16:31:00.229Z,2.00
2019-03-05T16:33:32.508Z,1.60
2019-03-05T16:36:17.383Z,1.70
2019-03-05T16:39:03.947Z,1.70
2019-03-05T16:41:53.408Z,1.73
2019-03-05T16:44:31.318Z,1.80
2019-03-05T16:47:00.670Z,1.63
2019-03-05T16:49:32.206Z,1.90
2019-03-05T16:52:19.609Z,2.10
2019-03-05T16:54:50.944Z,1.97
2019-03-05T16:57:22.450Z,2.03
2019-03-05T16:59:53.707Z,1.80
2019-03-05T17:02:30.972Z,1.70
2019-03-05T17:05:00.360Z,2.07
2019-03-05T17:07:37.439Z,2.10
2019-03-05T17:10:15.493Z,7.23
2019-03-05T17:12:45.092Z,4.93
2019-03-05T17:15:15.135Z,5.30
2019-03-05T17:17:44.734Z,7.50
2019-03-05T17:20:14.776Z,10.43
2019-03-05T17:22:44.372Z,10.00
2019-03-05T17:25:18.330Z,10.73
2019-03-05T17:27:47.953Z,8.50
2019-03-05T17:30:18.647Z,8.97
2019-03-05T17:32:49.101Z,7.77
2019-03-05T17:35:18.987Z,9.60
2019-03-05T17:37:48.857Z,13.60
2019-03-05T17:40:18.626Z,12.37
2019-03-05T17:42:50.126Z,14.70
2019-03-05T17:45:24.659Z,12.60
2019-03-05T17:47:54.658Z,9.23
2019-03-05T17:50:24.384Z,9.20
2019-03-05T17:52:54.004Z,9.87
2019-03-05T17:55:28.719Z,9.30
2019-03-05T17:57:58.485Z,11.37
2019-03-05T18:00:33.002Z,9.30
2019-03-05T18:03:02.596Z,9.60
2019-03-05T18:05:32.323Z,8.87
2019-03-05T18:08:02.129Z,8.10
2019-03-05T18:10:31.933Z,8.43
2019-03-05T18:13:01.615Z,7.30
2019-03-05T18:15:31.204Z,8.17
2019-03-05T18:18:00.886Z,9.10
2019-03-05T18:20:30.644Z,8.63
2019-03-05T18:23:00.258Z,7.90
2019-03-05T18:25:29.958Z,7.73
2019-03-05T18:27:59.546Z,6.77
2019-03-05T18:30:31.142Z,7.50
2019-03-05T18:33:00.939Z,6.20
2019-03-05T18:35:30.562Z,6.67
2019-03-05T18:38:00.159Z,6.37
2019-03-05T18:40:30.151Z,5.97
2019-03-05T18:42:59.910Z,6.13
2019-03-05T18:45:41.751Z,5.30
2019-03-05T18:48:11.534Z,5.50
2019-03-05T18:50:41.224Z,6.63
2019-03-05T18:53:10.980Z,6.90
2019-03-05T18:55:42.178Z,6.40
2019-03-05T18:58:11.788Z,5.63
2019-03-05T19:00:41.613Z,5.83
2019-03-05T19:03:17.752Z,6.17
2019-03-05T19:05:47.744Z,6.13
2019-03-05T19:08:17.350Z,5.03
2019-03-05T19:10:47.029Z,5.33
2019-03-05T19:13:16.783Z,5.03
2019-03-05T19:15:46.744Z,5.07
2019-03-05T19:18:16.334Z,5.13
2019-03-05T19:20:46.017Z,6.00
2019-03-05T19:23:15.608Z,5.57
2019-03-05T19:25:47.227Z,5.80
2019-03-05T19:28:16.994Z,4.80
2019-03-05T19:30:51.891Z,3.53
2019-03-05T19:33:21.643Z,5.20
2019-03-05T19:35:51.256Z,5.67
2019-03-05T19:38:21.479Z,5.07
2019-03-05T19:40:51.133Z,4.27
2019-03-05T19:43:20.745Z,4.67
2019-03-05T19:45:50.403Z,5.00
2019-03-05T19:48:20.087Z,4.90
2019-03-05T19:50:49.669Z,4.83
2019-03-05T19:53:19.360Z,4.63
2019-03-05T19:55:49.046Z,4.77
2019-03-05T19:58:18.655Z,4.63
2019-03-05T20:01:12.726Z,5.07
2019-03-05T20:03:42.409Z,4.97
2019-03-05T20:06:12.503Z,4.97
2019-03-05T20:08:42.111Z,5.43
2019-03-05T20:11:11.793Z,5.00
2019-03-05T20:13:41.452Z,4.73
2019-03-05T20:16:11.338Z,5.33
2019-03-05T20:18:40.930Z,5.63
2019-03-05T20:21:10.822Z,4.37
2019-03-05T20:23:40.403Z,4.80
2019-03-05T20:26:10.028Z,4.40
2019-03-05T20:28:39.615Z,4.73
2019-03-05T20:31:09.441Z,5.50
2019-03-05T20:33:39.033Z,5.03
2019-03-05T20:36:08.715Z,5.80
2019-03-05T20:38:38.300Z,5.13
2019-03-05T20:41:07.919Z,4.43
2019-03-05T20:43:37.502Z,4.93
2019-03-05T20:46:17.677Z,5.40
2019-03-05T20:48:47.403Z,5.20
2019-03-05T20:51:17.016Z,4.57
2019-03-05T20:53:46.602Z,4.57
2019-03-05T20:56:16.284Z,4.10
2019-03-05T20:58:45.879Z,4.53
2019-03-05T21:01:15.561Z,4.00
2019-03-05T21:03:45.248Z,5.80
2019-03-05T21:06:15.161Z,4.43
2019-03-05T21:08:44.775Z,4.97
2019-03-05T21:11:14.428Z,5.23
2019-03-05T21:13:44.111Z,4.93
2019-03-05T21:16:13.836Z,4.40
2019-03-05T21:18:43.455Z,4.87
2019-03-05T21:21:13.043Z,4.77
2019-03-05T21:23:42.670Z,4.73
2019-03-05T21:26:12.342Z,4.60
2019-03-05T21:28:41.944Z,4.20
2019-03-05T21:31:11.629Z,5.07
2019-03-05T21:33:41.214Z,4.73
2019-03-05T21:36:10.835Z,4.67
2019-03-05T21:38:40.441Z,4.73
2019-03-05T21:41:10.131Z,5.60
2019-03-05T21:43:39.722Z,6.77
2019-03-05T21:46:16.445Z,4.10
2019-03-05T21:48:46.101Z,4.87
2019-03-05T21:51:15.699Z,5.07
2019-03-05T21:53:45.324Z,5.40
2019-03-05T21:56:14.938Z,4.90
2019-03-05T21:58:44.526Z,6.30
2019-03-05T22:01:14.216Z,6.50
2019-03-05T22:03:43.825Z,9.20
2019-03-05T22:06:13.421Z,9.47
2019-03-05T22:08:43.043Z,12.27
2019-03-05T22:11:12.635Z,12.30
2019-03-05T22:13:42.315Z,11.90
2019-03-05T22:16:12.107Z,9.07
2019-03-05T22:18:41.761Z,8.97
2019-03-05T22:21:11.382Z,10.07
2019-03-05T22:23:40.979Z,11.00
2019-03-05T22:26:10.588Z,10.97
2019-03-05T22:28:40.253Z,6.00
2019-03-05T22:31:09.865Z,4.23
2019-03-05T22:33:39.455Z,4.90
2019-03-05T22:36:09.137Z,4.60
2019-03-05T22:38:38.722Z,5.00
2019-03-05T22:41:08.326Z,5.83
2019-03-05T22:43:37.985Z,5.50
2019-03-05T22:46:07.667Z,5.27
2019-03-05T22:48:37.292Z,5.40
2019-03-05T22:51:06.887Z,4.47
2019-03-05T22:53:36.480Z,4.33
2019-03-05T22:56:06.232Z,4.97
2019-03-05T22:58:35.818Z,4.47
2019-03-05T23:01:07.223Z,3.90
2019-03-05T23:03:37.518Z,4.33
2019-03-05T23:06:11.675Z,4.03
2019-03-05T23:08:41.330Z,3.47
2019-03-05T23:11:11.180Z,4.37
2019-03-05T23:13:41.072Z,3.70
2019-03-05T23:16:10.892Z,3.80
2019-03-05T23:18:40.586Z,4.87
2019-03-05T23:21:10.936Z,3.33
2019-03-05T23:23:40.625Z,3.93
2019-03-05T23:26:10.724Z,3.33
2019-03-05T23:28:40.478Z,3.80
2019-03-05T23:31:12.772Z,4.03
2019-03-05T23:33:42.598Z,3.90
2019-03-05T23:36:12.417Z,3.97
2019-03-05T23:38:42.231Z,3.70
2019-03-05T23:41:11.844Z,3.77
2019-03-05T23:43:41.505Z,3.90
2019-03-05T23:46:11.176Z,3.77
2019-03-05T23:48:40.901Z,3.63
2019-03-05T23:51:10.584Z,3.40
2019-03-05T23:53:40.196Z,3.20
2019-03-05T23:56:09.808Z,3.73
2019-03-05T23:58:39.422Z,3.53
